« Back
NWS Peachtree City, Ga » Text Product » AHN Terminal Aerodrome Forecast


Printer-friendly Version
Current Version              Previous Versions:   1  2  3  4  5  6  7  8  9  

Terminal Aerodrome Forecast

505
FTUS42 KFFC 291721
TAFAHN
TAF
KAHN 291721Z 2918/3018 04004KT P6SM SCT070 BKN120
     FM300000 07003KT P6SM SCT100 BKN150
     FM300500 VRB03KT P6SM SCT150
     FM301500 31004KT P6SM FEW040=



USA.gov is the U.S. government's official web portal to all federal, state and local government web resources and services.